Stump Creek, Pennsylvania
Current Conditions -  °F | °C
As of 9:53 PM on Sunday 23 Nov 2014 (Local Time) from KDUJ Reporting Station
Light Rain Light Rain  
Wind Chill: 50°   Ceiling: 9500
Heat Index: 50°   Visibility: 8mi
Dew Point: 41°   Wind: 17mph
Humidity: 71%   Direction: 140°SE
Pressure: 29.74"   Gusts: 29mph
Location:  41.01°N, 78.84°W
Report Text: KDUJ 240253Z AUTO 14015G25KT 8SM -RA SCT025 BKN095 OVC110 10/05 A2974 RMK AO2 RAB50 SLP071 P0000 60000 T01000050 56018
Loading
Personal Weather Stations






























Interactive Weather Map New forecast layout! Learn more

10-Day Weather Forecast

Advertisements
Track Severe Weather on mobile